createdAt,value
2018-06-14T14:48:56.190Z,8.18
2018-06-14T15:36:46.306Z,9.85
2018-06-14T16:11:49.063Z,16.90
2018-06-14T16:31:36.744Z,15.23
2018-06-14T16:57:16.046Z,15.98
2018-06-14T16:59:45.182Z,16.27
2018-06-14T17:02:13.822Z,13.13
2018-06-14T17:04:42.421Z,14.13
2018-06-14T17:07:10.943Z,14.25
2018-06-14T17:09:39.595Z,15.15
2018-06-14T17:12:08.312Z,12.70
2018-06-14T17:14:36.908Z,13.48
2018-06-14T17:17:05.775Z,16.48
2018-06-14T17:19:34.314Z,15.23
2018-06-14T17:22:02.992Z,13.90
2018-06-14T17:24:31.498Z,13.30
2018-06-14T17:27:00.821Z,14.23
2018-06-14T17:29:29.338Z,14.23
2018-06-14T17:31:57.923Z,13.15
2018-06-14T17:34:26.502Z,13.62
2018-06-14T17:36:55.068Z,13.25
2018-06-14T17:39:23.617Z,13.60
2018-06-14T17:41:52.288Z,14.87
2018-06-14T17:44:20.862Z,12.03
2018-06-14T17:46:49.461Z,13.48
2018-06-14T17:49:18.021Z,12.25
2018-06-14T17:51:46.626Z,13.13
2018-06-14T17:54:15.267Z,15.23
2018-06-14T17:56:45.211Z,13.45
2018-06-14T17:59:14.348Z,14.55
2018-06-14T18:01:42.990Z,13.58
2018-06-14T18:04:11.535Z,11.68
2018-06-14T18:06:40.745Z,14.30
2018-06-14T18:09:10.189Z,13.75
2018-06-14T18:11:39.365Z,14.58
2018-06-14T18:14:08.014Z,14.83
2018-06-14T18:16:36.538Z,13.65
2018-06-14T18:19:05.155Z,14.05
2018-06-14T18:21:33.758Z,14.03
2018-06-14T18:24:02.274Z,12.53
2018-06-14T18:26:30.823Z,12.13
2018-06-14T18:28:59.361Z,11.53
2018-06-14T18:31:28.056Z,12.10
2018-06-14T18:33:57.528Z,11.78
2018-06-14T18:36:25.770Z,10.70
2018-06-14T18:38:54.341Z,12.28
2018-06-14T18:41:22.966Z,11.43
2018-06-14T18:43:51.508Z,12.13
2018-06-14T18:46:20.086Z,12.37
2018-06-14T18:48:48.665Z,10.95
2018-06-14T18:51:17.268Z,13.28
2018-06-14T18:53:45.850Z,13.60
2018-06-14T18:56:14.431Z,12.00
2018-06-14T18:58:43.069Z,11.68
2018-06-14T19:01:11.726Z,15.40
2018-06-14T19:03:40.332Z,13.93
2018-06-14T19:06:08.968Z,13.25
2018-06-14T19:08:37.550Z,15.75
2018-06-14T19:11:06.447Z,15.05
2018-06-14T19:13:34.982Z,15.05
2018-06-14T19:16:03.553Z,16.40
2018-06-14T19:18:32.137Z,17.82
2018-06-14T19:21:00.696Z,15.60
2018-06-14T19:23:29.537Z,15.45
2018-06-14T19:25:58.052Z,15.50
2018-06-14T19:28:26.702Z,15.38
2018-06-14T19:30:55.200Z,16.55
2018-06-14T19:33:23.790Z,18.27
2018-06-14T19:35:52.350Z,15.28
2018-06-14T19:38:20.916Z,18.60
2018-06-14T19:40:49.516Z,16.57
2018-06-14T19:43:18.112Z,18.60
2018-06-14T19:45:46.782Z,15.95
2018-06-14T19:48:15.420Z,17.48
2018-06-14T19:50:43.973Z,16.95
2018-06-14T19:53:12.541Z,16.97
2018-06-14T19:55:41.098Z,18.82
2018-06-14T19:58:09.641Z,18.52
2018-06-14T20:00:38.329Z,18.40
2018-06-14T20:03:06.919Z,18.85
2018-06-14T20:05:35.442Z,18.07
2018-06-14T20:08:04.014Z,18.15
2018-06-14T20:10:32.576Z,19.30
2018-06-14T20:13:02.418Z,18.20
2018-06-14T20:15:31.328Z,20.30
2018-06-14T20:17:59.856Z,24.77
2018-06-14T20:20:28.406Z,21.62
2018-06-14T20:22:56.974Z,21.95
2018-06-14T20:25:26.288Z,22.82
2018-06-14T20:27:54.939Z,22.27
2018-06-14T20:30:23.461Z,23.20
2018-06-14T20:32:52.050Z,22.27
2018-06-14T20:35:20.642Z,24.65
2018-06-14T20:37:49.199Z,22.85
2018-06-14T20:40:17.757Z,24.07
2018-06-14T20:42:46.424Z,23.57
2018-06-14T20:45:15.013Z,24.15
2018-06-14T20:47:43.562Z,26.35
2018-06-14T20:50:12.103Z,24.00
2018-06-14T20:52:40.691Z,26.65
2018-06-14T20:55:09.300Z,27.70
2018-06-14T20:57:37.914Z,27.82
2018-06-14T21:00:06.508Z,29.18
2018-06-14T21:02:35.110Z,30.10
2018-06-14T21:05:03.716Z,31.05
2018-06-14T21:07:32.237Z,29.55
2018-06-14T21:10:03.674Z,30.70
2018-06-14T21:12:34.954Z,32.58
2018-06-14T21:15:03.561Z,33.35
2018-06-14T21:17:32.154Z,32.53
2018-06-14T21:20:00.801Z,33.92
2018-06-14T21:22:29.481Z,32.63
2018-06-14T21:24:58.043Z,31.07
2018-06-14T21:27:26.622Z,30.82
2018-06-14T21:29:55.203Z,30.40
2018-06-14T21:32:23.831Z,28.47
2018-06-14T21:34:52.331Z,30.55
2018-06-14T21:37:20.867Z,28.27
2018-06-14T21:39:49.383Z,26.07
2018-06-14T21:42:18.009Z,26.00
2018-06-14T21:44:46.719Z,26.75
2018-06-14T21:47:15.255Z,25.62
